Time;durP1;ratioP1;P1;durP2;ratioP2;P2;SDS_P1;SDS_P2;PMS_P1;PMS_P2;Temp;Humidity;BMP_temperature;BMP_pressure;BME280_temperature;BME280_humidity;BME280_pressure;Samples;Min_cycle;Max_cycle;Signal;HPM_P1;HPM_P2
2021/11/12 00:04:22;;;;;;;45.58;27.67;;;10.50;93.00;;;;;;5034745;28;20083;-77
2021/11/12 00:12:37;;;;;;;42.00;27.40;;;10.40;93.10;;;;;;5034029;28;20052;-77
2021/11/12 00:15:04;;;;;;;46.67;27.87;;;10.40;93.20;;;;;;5033416;28;20064;-73
2021/11/12 00:17:32;;;;;;;46.30;30.13;;;10.40;93.20;;;;;;5034695;28;20405;-73
2021/11/12 00:19:59;;;;;;;45.50;26.55;;;10.40;93.20;;;;;;5034522;28;20045;-73
2021/11/12 00:22:26;;;;;;;47.37;27.93;;;10.40;93.20;;;;;;5034424;28;20088;-73
2021/11/12 00:24:54;;;;;;;51.30;29.00;;;10.50;93.20;;;;;;5034335;28;20063;-73
2021/11/12 00:27:22;;;;;;;50.07;29.60;;;10.50;93.20;;;;;;5034336;28;20588;-77
2021/11/12 00:29:57;;;;;;;48.57;28.80;;;10.40;93.40;;;;;;5034349;28;20041;-77
2021/11/12 00:37:41;;;;;;;44.97;26.47;;;10.30;93.00;;;;;;5035184;28;20033;-77
2021/11/12 00:45:31;;;;;;;45.83;27.13;;;10.40;93.10;;;;;;5033907;28;20367;-77
2021/11/12 00:48:09;;;;;;;44.00;28.00;;;10.40;93.00;;;;;;5034968;28;20040;-76
2021/11/12 00:55:40;;;;;;;41.93;26.43;;;10.40;93.10;;;;;;5034749;28;20076;-77
2021/11/12 00:58:10;;;;;;;43.70;26.43;;;10.40;93.10;;;;;;5034375;28;20485;-77
2021/11/12 01:00:37;;;;;;;41.60;26.97;;;10.50;93.10;;;;;;5034789;28;20087;-77
2021/11/12 01:03:03;;;;;;;41.43;26.30;;;10.50;93.00;;;;;;5034724;28;20029;-77
2021/11/12 01:05:30;;;;;;;42.20;25.73;;;10.40;93.00;;;;;;5033315;28;20064;-77
2021/11/12 01:07:57;;;;;;;42.70;26.07;;;10.40;93.10;;;;;;5033251;28;20491;-73
2021/11/12 01:10:23;;;;;;;40.53;26.53;;;10.40;93.10;;;;;;5033141;28;20025;-73
2021/11/12 01:12:49;;;;;;;40.73;26.37;;;10.40;93.10;;;;;;5034493;28;20117;-74
2021/11/12 01:15:17;;;;;;;45.20;27.37;;;10.40;93.10;;;;;;5032869;28;20032;-73
2021/11/12 01:17:44;;;;;;;44.07;26.33;;;10.40;93.10;;;;;;5034274;28;20036;-74
2021/11/12 01:20:11;;;;;;;41.53;26.37;;;10.40;93.10;;;;;;5034182;28;20025;-73
2021/11/12 01:22:38;;;;;;;39.47;25.70;;;10.40;93.10;;;;;;5034501;28;20033;-74
2021/11/12 01:25:10;;;;;;;42.40;26.73;;;10.50;93.10;;;;;;5034179;28;20025;-74
2021/11/12 01:27:38;;;;;;;41.63;25.53;;;10.40;93.10;;;;;;5032836;28;20493;-73
2021/11/12 01:30:08;;;;;;;42.67;26.00;;;10.40;93.10;;;;;;5033905;28;20096;-73
2021/11/12 01:32:34;;;;;;;45.27;26.47;;;10.40;93.10;;;;;;5033765;28;20049;-74
2021/11/12 01:35:01;;;;;;;40.53;25.97;;;10.30;93.20;;;;;;5034034;28;20076;-73
2021/11/12 01:37:29;;;;;;;40.87;25.93;;;10.40;93.10;;;;;;5034062;28;20041;-74
2021/11/12 01:39:58;;;;;;;37.77;24.70;;;10.40;93.10;;;;;;5016216;28;20113;-73
2021/11/12 01:42:27;;;;;;;40.80;26.00;;;10.30;93.20;;;;;;5032608;28;20037;-73
2021/11/12 01:44:59;;;;;;;42.47;25.67;;;10.40;93.20;;;;;;5032384;28;20064;-74
2021/11/12 01:49:52;;;;;;;46.50;27.33;;;10.30;93.20;;;;;;5032550;28;20122;-73
2021/11/12 01:52:23;;;;;;;40.93;26.23;;;10.30;93.20;;;;;;5032588;28;20033;-74
2021/11/12 01:54:59;;;;;;;40.00;25.67;;;10.30;93.20;;;;;;5032485;28;20049;-73
2021/11/12 01:58:16;;;;;;;43.90;26.80;;;10.30;93.20;;;;;;5032292;28;20466;-72
2021/11/12 02:00:12;;;;;;;40.27;25.47;;;10.30;93.50;;;;;;5033253;28;20029;-73
2021/11/12 02:02:38;;;;;;;41.03;25.33;;;10.20;93.20;;;;;;5033582;28;20034;-73
2021/11/12 02:05:04;;;;;;;38.60;25.83;;;10.20;93.20;;;;;;5016157;28;20465;-73
2021/11/12 02:07:34;;;;;;;41.97;26.43;;;10.20;93.30;;;;;;5033478;28;20035;-73
2021/11/12 02:10:12;;;;;;;42.17;26.40;;;10.10;93.30;;;;;;5033822;28;20343;-73
2021/11/12 02:12:48;;;;;;;43.17;26.73;;;10.10;93.30;;;;;;5033984;28;20045;-73
2021/11/12 02:15:13;;;;;;;44.23;27.00;;;10.10;93.30;;;;;;5016985;28;20117;-73
2021/11/12 02:17:43;;;;;;;39.17;25.73;;;10.10;93.30;;;;;;5033588;28;20448;-73
2021/11/12 02:20:18;;;;;;;40.07;27.00;;;10.00;93.30;;;;;;5033713;28;20033;-73
2021/11/12 02:22:46;;;;;;;45.57;27.43;;;10.00;93.30;;;;;;5033565;28;20099;-73
2021/11/12 02:25:22;;;;;;;43.17;26.17;;;10.00;93.30;;;;;;5033417;28;20064;-73
2021/11/12 02:30:22;;;;;;;46.30;27.70;;;10.00;93.30;;;;;;5033210;28;20092;-73
2021/11/12 02:33:00;;;;;;;46.07;28.10;;;9.90;93.30;;;;;;5016932;28;20108;-73
2021/11/12 02:35:26;;;;;;;44.33;26.03;;;9.90;93.30;;;;;;5032934;28;20108;-73
2021/11/12 02:37:52;;;;;;;45.27;27.97;;;9.90;93.30;;;;;;5032119;28;20029;-73
2021/11/12 02:40:19;;;;;;;47.00;27.80;;;9.90;93.30;;;;;;5033266;28;20026;-73
2021/11/12 02:42:44;;;;;;;47.37;28.47;;;9.80;93.30;;;;;;5033198;28;20030;-73
2021/11/12 02:45:10;;;;;;;43.40;27.93;;;9.80;93.40;;;;;;5031936;28;20400;-73
2021/11/12 02:47:35;;;;;;;46.07;27.13;;;9.80;93.40;;;;;;5033366;28;20370;-73
2021/11/12 02:50:02;;;;;;;50.17;28.37;;;9.80;93.40;;;;;;5031755;28;20030;-72
2021/11/12 02:52:28;;;;;;;46.87;28.10;;;9.70;93.50;;;;;;5031843;28;20060;-73
2021/11/12 02:54:53;;;;;;;45.23;28.00;;;9.70;93.50;;;;;;5033274;28;20462;-74
2021/11/12 02:57:20;;;;;;;42.60;27.90;;;9.70;93.50;;;;;;5033091;28;20034;-74
2021/11/12 02:59:47;;;;;;;50.50;28.37;;;9.70;93.60;;;;;;5031772;28;20421;-74
2021/11/12 03:02:14;;;;;;;42.17;25.83;;;9.70;93.60;;;;;;5031945;28;20469;-74
2021/11/12 03:04:40;;;;;;;43.23;26.17;;;9.60;93.50;;;;;;5031671;28;20033;-74
2021/11/12 03:07:06;;;;;;;50.33;28.30;;;9.60;93.60;;;;;;5031917;28;20057;-74
2021/11/12 03:09:33;;;;;;;49.53;27.27;;;9.60;93.60;;;;;;5031730;28;20080;-74
2021/11/12 03:12:01;;;;;;;47.03;26.27;;;9.60;93.60;;;;;;5031723;28;20037;-74
2021/11/12 03:14:27;;;;;;;49.03;27.07;;;9.60;93.60;;;;;;5031835;28;20038;-74
2021/11/12 03:16:53;;;;;;;52.23;28.53;;;9.60;93.60;;;;;;5032976;28;20030;-74
2021/11/12 03:19:24;;;;;;;47.40;27.80;;;9.50;93.60;;;;;;5033293;28;20029;-74
2021/11/12 03:21:54;;;;;;;46.37;27.77;;;9.50;93.60;;;;;;5036702;28;20048;-74
2021/11/12 03:24:27;;;;;;;50.10;28.50;;;9.50;93.70;;;;;;5035155;28;20044;-74
2021/11/12 04:21:37;;;;;;;53.60;28.38;;;8.80;92.00;;;;;;5035830;28;20108;-78
2021/11/12 05:10:44;;;;;;;51.83;29.30;;;7.40;92.20;;;;;;5035221;28;20079;-77
2021/11/12 05:51:31;;;;;;;44.65;27.48;;;6.30;93.00;;;;;;5033840;28;20118;-77
2021/11/12 05:56:44;;;;;;;41.53;23.80;;;6.30;93.10;;;;;;5033856;28;20033;-77
2021/11/12 05:59:10;;;;;;;38.10;25.20;;;6.20;93.20;;;;;;5032192;28;20017;-77
2021/11/12 06:01:38;;;;;;;40.47;23.83;;;6.10;93.10;;;;;;5033505;28;20144;-77
2021/11/12 06:04:04;;;;;;;38.30;23.47;;;6.10;93.20;;;;;;5033461;28;20014;-77
2021/11/12 06:06:30;;;;;;;40.93;25.00;;;6.10;93.20;;;;;;5031858;28;20393;-77
2021/11/12 06:08:57;;;;;;;36.70;22.63;;;6.00;93.20;;;;;;5026531;28;20421;-77
2021/11/12 06:11:23;;;;;;;37.97;23.13;;;6.00;93.20;;;;;;5048750;28;20099;-77
2021/11/12 06:13:50;;;;;;;39.30;23.80;;;6.00;93.30;;;;;;5033252;28;20029;-76
2021/11/12 06:16:16;;;;;;;36.83;23.83;;;6.00;93.60;;;;;;5033219;28;20091;-77
2021/11/12 06:18:42;;;;;;;37.23;23.43;;;5.90;93.30;;;;;;5039261;28;20022;-77
2021/11/12 06:21:09;;;;;;;36.10;21.57;;;5.80;93.20;;;;;;5046458;28;20096;-77
2021/11/12 06:23:35;;;;;;;38.30;22.87;;;5.90;93.30;;;;;;5049659;28;20035;-77
2021/11/12 06:26:01;;;;;;;34.47;21.77;;;5.90;93.30;;;;;;5043120;28;20029;-77
2021/11/12 06:28:26;;;;;;;30.37;20.50;;;5.80;93.20;;;;;;5048933;28;20521;-77
2021/11/12 06:30:56;;;;;;;33.43;21.83;;;5.80;93.20;;;;;;5041886;28;20029;-78
2021/11/12 06:33:22;;;;;;;38.57;23.17;;;5.90;93.30;;;;;;5030465;28;20453;-77
2021/11/12 06:35:47;;;;;;;37.63;21.70;;;5.80;93.20;;;;;;5014156;28;20082;-77
2021/11/12 06:38:15;;;;;;;38.97;24.20;;;5.70;93.30;;;;;;5031823;28;20112;-77
2021/11/12 06:40:41;;;;;;;35.97;21.93;;;5.70;93.30;;;;;;5031548;28;20029;-77
2021/11/12 06:43:19;;;;;;;37.20;22.00;;;5.70;93.30;;;;;;5033095;28;20021;-77
2021/11/12 06:51:14;;;;;;;34.38;21.50;;;5.60;93.30;;;;;;5032233;28;20060;-76
2021/11/12 06:53:40;;;;;;;33.07;20.83;;;5.60;93.40;;;;;;5015094;28;20040;-77
2021/11/12 06:56:06;;;;;;;39.60;21.63;;;5.50;93.50;;;;;;5034738;28;20038;-77
2021/11/12 06:58:31;;;;;;;38.27;22.67;;;5.50;93.40;;;;;;5053055;28;20065;-77
2021/11/12 07:00:58;;;;;;;38.53;22.40;;;5.50;93.40;;;;;;5043797;28;20033;-78
2021/11/12 07:03:26;;;;;;;35.07;20.77;;;5.50;93.40;;;;;;5046086;28;20029;-77
2021/11/12 07:05:52;;;;;;;35.97;21.10;;;5.50;93.50;;;;;;5055282;28;20453;-77
2021/11/12 07:08:18;;;;;;;37.27;22.13;;;5.50;93.50;;;;;;5055449;28;20496;-77
2021/11/12 07:10:44;;;;;;;37.50;21.70;;;5.40;93.50;;;;;;5056517;28;20025;-77
2021/11/12 07:13:10;;;;;;;37.87;22.33;;;5.40;93.60;;;;;;5056640;28;20033;-77
2021/11/12 07:15:36;;;;;;;37.10;21.93;;;5.40;93.80;;;;;;5055097;28;20036;-77
2021/11/12 07:18:01;;;;;;;40.23;23.63;;;5.40;93.80;;;;;;5056117;28;20488;-77
2021/11/12 07:20:28;;;;;;;35.50;22.63;;;5.40;93.70;;;;;;5054797;28;20033;-78
2021/11/12 07:22:54;;;;;;;38.13;22.23;;;5.50;93.80;;;;;;5055875;28;20203;-76
2021/11/12 07:25:19;;;;;;;34.90;23.30;;;5.40;93.80;;;;;;5037964;28;20063;-78
2021/11/12 07:27:47;;;;;;;35.90;21.70;;;5.30;93.80;;;;;;5055707;28;20033;-77
2021/11/12 07:30:15;;;;;;;41.40;22.80;;;5.30;93.80;;;;;;5053167;28;20385;-78
2021/11/12 07:32:45;;;;;;;34.80;21.57;;;5.40;93.90;;;;;;5053742;28;20134;-77
2021/11/12 07:35:13;;;;;;;41.20;22.87;;;5.40;94.00;;;;;;5054066;28;20446;-77
2021/11/12 07:37:39;;;;;;;38.23;22.77;;;5.40;94.00;;;;;;5055459;28;20029;-78
2021/11/12 07:40:08;;;;;;;35.43;22.37;;;5.40;94.00;;;;;;5052979;28;20025;-77
2021/11/12 07:43:05;;;;;;;37.27;21.07;;;5.40;94.00;;;;;;5055956;28;20029;-77
2021/11/12 07:47:52;;;;;;;38.07;22.10;;;5.40;93.90;;;;;;5054481;28;20379;-73
2021/11/12 07:50:18;;;;;;;41.03;22.63;;;5.40;94.00;;;;;;5038354;28;20090;-72
2021/11/12 07:52:43;;;;;;;39.77;23.30;;;5.40;93.90;;;;;;5056163;28;20513;-73
2021/11/12 07:55:10;;;;;;;40.13;23.57;;;5.40;94.00;;;;;;5054392;28;20482;-73
2021/11/12 07:57:36;;;;;;;39.20;21.70;;;5.40;94.00;;;;;;5054677;28;20044;-72
2021/11/12 08:00:04;;;;;;;36.87;21.37;;;5.40;94.00;;;;;;5055892;28;20507;-72
2021/11/12 08:02:30;;;;;;;37.67;21.33;;;5.40;94.00;;;;;;5055509;28;20029;-73
2021/11/12 08:05:01;;;;;;;39.60;22.93;;;5.40;94.00;;;;;;5055206;28;20033;-77
2021/11/12 08:07:30;;;;;;;43.97;24.23;;;5.40;94.10;;;;;;5055464;28;20472;-77
2021/11/12 08:09:58;;;;;;;48.00;24.30;;;5.40;94.20;;;;;;5054322;28;20025;-77
2021/11/12 08:12:31;;;;;;;41.47;23.40;;;5.50;94.20;;;;;;5053892;28;20041;-77
2021/11/12 08:15:36;;;;;;;47.70;25.60;;;5.40;94.20;;;;;;5021322;28;20029;-78
2021/11/12 08:18:06;;;;;;;43.47;24.83;;;5.50;94.30;;;;;;5052586;28;20488;-77
2021/11/12 08:20:53;;;;;;;44.65;26.30;;;5.50;94.30;;;;;;5054154;28;20029;-77
2021/11/12 08:23:25;;;;;;;39.97;23.40;;;5.50;94.40;;;;;;5055061;28;20501;-77
2021/11/12 08:26:07;;;;;;;42.97;24.33;;;5.50;94.40;;;;;;5038059;28;20021;-77
2021/11/12 08:33:38;;;;;;;43.47;26.13;;;5.60;94.40;;;;;;5054963;28;20040;-77
2021/11/12 08:39:10;;;;;;;46.97;24.23;;;5.70;94.30;;;;;;5046321;28;20025;-77
2021/11/12 08:41:41;;;;;;;40.27;24.47;;;5.60;94.40;;;;;;5039002;28;20480;-77
2021/11/12 08:44:18;;;;;;;45.70;24.23;;;5.70;94.30;;;;;;5047209;28;20469;-77
2021/11/12 08:46:51;;;;;;;51.00;25.90;;;5.80;94.40;;;;;;5041280;28;20037;-77
2021/11/12 08:49:50;;;;;;;45.27;26.63;;;5.80;94.30;;;;;;5053426;28;20071;-77
2021/11/12 08:52:12;;;;;;;45.67;25.50;;;5.90;94.40;;;;;;5053251;28;20025;-77
2021/11/12 08:54:40;;;;;;;46.80;27.23;;;5.90;94.40;;;;;;5054833;28;20068;-77
2021/11/12 08:57:10;;;;;;;46.63;25.03;;;6.00;94.40;;;;;;5053265;28;20036;-77
2021/11/12 08:59:39;;;;;;;42.70;23.43;;;6.00;94.40;;;;;;5054432;28;20025;-77
2021/11/12 09:02:08;;;;;;;42.27;26.03;;;6.10;94.40;;;;;;5048650;28;20029;-77
2021/11/12 09:04:34;;;;;;;47.57;26.60;;;6.10;94.30;;;;;;5050922;28;20496;-77
2021/11/12 09:07:00;;;;;;;41.67;24.77;;;6.20;94.20;;;;;;5052193;28;20052;-77
2021/11/12 09:09:27;;;;;;;43.23;25.70;;;6.20;94.20;;;;;;5054042;28;20037;-77
2021/11/12 09:11:54;;;;;;;43.03;25.60;;;6.30;94.10;;;;;;5036473;28;20021;-77
2021/11/12 09:14:22;;;;;;;42.73;26.10;;;6.30;94.00;;;;;;5053505;28;20040;-76
2021/11/12 09:16:49;;;;;;;38.70;23.73;;;6.40;94.00;;;;;;5054555;28;20032;-77
2021/11/12 09:19:15;;;;;;;35.40;22.67;;;6.50;94.10;;;;;;5054452;28;20025;-77
2021/11/12 09:21:47;;;;;;;39.33;23.90;;;6.60;94.10;;;;;;5054717;28;20366;-77
2021/11/12 09:24:13;;;;;;;37.73;23.03;;;6.80;94.20;;;;;;5054484;28;20032;-77
2021/11/12 09:26:40;;;;;;;36.80;22.23;;;7.00;94.10;;;;;;5053183;28;20122;-77
2021/11/12 09:29:11;;;;;;;37.97;21.13;;;7.30;94.20;;;;;;5043549;28;20037;-77
2021/11/12 09:31:40;;;;;;;39.33;22.27;;;7.60;94.20;;;;;;5035469;28;20045;-77
2021/11/12 09:34:10;;;;;;;36.80;21.03;;;8.00;93.80;;;;;;5051946;28;20025;-77
2021/11/12 09:36:35;;;;;;;31.57;18.60;;;8.50;93.60;;;;;;5052584;28;20029;-77
2021/11/12 09:39:01;;;;;;;29.53;18.50;;;9.00;93.40;;;;;;5053086;28;20047;-77
2021/11/12 09:41:27;;;;;;;30.20;15.75;;;9.60;93.30;;;;;;5053264;28;20021;-77
2021/11/12 09:43:53;;;;;;;25.95;16.50;;;10.10;92.80;;;;;;5052117;28;20466;-77
2021/11/12 09:46:19;;;;;;;29.17;17.67;;;10.80;91.70;;;;;;5052110;28;20032;-77
2021/11/12 09:48:45;;;;;;;23.20;15.38;;;11.30;90.90;;;;;;5051764;28;20045;-77
2021/11/12 09:51:12;;;;;;;23.10;15.10;;;11.80;90.50;;;;;;5053060;28;20435;-77
2021/11/12 09:53:39;;;;;;;27.13;15.25;;;12.30;89.80;;;;;;5035404;28;20385;-78
2021/11/12 09:56:07;;;;;;;28.10;17.27;;;12.70;87.60;;;;;;5051996;28;20404;-78
2021/11/12 09:58:35;;;;;;;24.38;16.85;;;13.20;85.50;;;;;;5053070;28;20017;-78
2021/11/12 10:01:00;;;;;;;23.23;16.50;;;13.60;82.80;;;;;;5053025;28;20362;-78
2021/11/12 10:03:33;;;;;;;26.23;16.48;;;14.00;81.00;;;;;;5053135;28;20024;-78
2021/11/12 10:06:17;;;;;;;26.10;17.00;;;14.30;80.00;;;;;;5052076;28;20485;-77
2021/11/12 10:08:42;;;;;;;25.95;18.00;;;14.70;76.50;;;;;;5053434;28;20060;-77
2021/11/12 10:11:12;;;;;;;25.20;16.23;;;15.00;75.30;;;;;;5051868;28;20075;-77
2021/11/12 10:13:42;;;;;;;23.05;15.25;;;15.40;73.30;;;;;;5039082;28;20064;-77
2021/11/12 10:19:07;;;;;;;25.83;17.00;;;15.90;68.70;;;;;;5033258;28;20493;-77
2021/11/12 10:21:40;;;;;;;25.10;17.17;;;16.10;66.80;;;;;;5033299;28;20096;-77
2021/11/12 10:24:37;;;;;;;25.30;16.55;;;16.30;65.70;;;;;;5041361;28;20017;-77
2021/11/12 10:27:15;;;;;;;22.50;16.17;;;16.40;64.50;;;;;;5044879;28;20072;-77
2021/11/12 10:29:45;;;;;;;24.02;18.55;;;16.50;62.60;;;;;;5054558;28;20094;-79
2021/11/12 10:32:18;;;;;;;27.77;18.17;;;16.50;60.90;;;;;;5057683;28;20041;-77
2021/11/12 10:34:47;;;;;;;27.38;18.33;;;16.40;60.10;;;;;;5057465;28;20053;-78
2021/11/12 10:37:19;;;;;;;24.50;19.13;;;16.40;59.70;;;;;;5056826;28;20021;-77
2021/11/12 10:39:45;;;;;;;26.30;18.63;;;16.50;59.50;;;;;;5055773;28;20021;-77
2021/11/12 10:42:19;;;;;;;23.58;17.85;;;16.60;59.10;;;;;;5057043;28;20092;-77
2021/11/12 10:44:57;;;;;;;24.35;18.45;;;16.80;58.80;;;;;;5056915;28;20385;-77
2021/11/12 10:47:24;;;;;;;26.65;18.38;;;16.90;59.00;;;;;;5056965;28;20017;-77
2021/11/12 10:49:54;;;;;;;25.90;18.10;;;17.10;58.40;;;;;;5055885;28;20128;-77
2021/11/12 10:52:23;;;;;;;24.05;17.77;;;17.30;57.40;;;;;;5056781;28;20029;-77
2021/11/12 10:55:01;;;;;;;22.70;17.02;;;17.50;57.20;;;;;;5056693;28;20056;-77
2021/11/12 10:57:48;;;;;;;21.63;15.80;;;17.60;57.30;;;;;;5056616;28;20052;-77
2021/11/12 11:00:26;;;;;;;22.80;15.43;;;17.70;56.60;;;;;;5056615;28;20104;-77
2021/11/12 11:02:57;;;;;;;24.38;16.92;;;17.90;56.10;;;;;;5056885;28;20147;-78
2021/11/12 11:05:28;;;;;;;20.35;15.45;;;18.10;55.80;;;;;;5055100;28;20013;-77
2021/11/12 11:07:57;;;;;;;23.95;16.65;;;18.30;56.00;;;;;;5055063;28;20021;-78
2021/11/12 11:10:38;;;;;;;21.50;16.27;;;18.50;55.00;;;;;;5054984;28;20033;-78
2021/11/12 11:13:10;;;;;;;23.35;17.10;;;18.30;54.70;;;;;;5055405;28;20424;-78
2021/11/12 11:15:47;;;;;;;27.05;17.50;;;18.40;54.10;;;;;;5056228;28;20473;-78
2021/11/12 11:18:25;;;;;;;23.92;17.27;;;18.50;53.60;;;;;;5055341;28;20385;-78
2021/11/12 11:23:46;;;;;;;23.13;16.67;;;18.80;53.00;;;;;;5056467;28;20362;-78
2021/11/12 11:26:39;;;;;;;21.20;16.50;;;18.90;52.30;;;;;;5056226;28;20469;-78
2021/11/12 11:29:07;;;;;;;20.83;16.40;;;19.00;51.90;;;;;;5054905;28;20017;-78
2021/11/12 11:31:33;;;;;;;21.85;16.27;;;19.00;51.60;;;;;;5056130;28;20052;-78
2021/11/12 11:34:00;;;;;;;24.73;17.42;;;19.00;51.90;;;;;;5056190;28;20071;-77
2021/11/12 11:36:32;;;;;;;22.38;16.30;;;19.10;50.90;;;;;;5055865;28;20066;-77
2021/11/12 11:39:01;;;;;;;19.80;14.50;;;19.30;51.10;;;;;;5054644;28;20017;-77
2021/11/12 11:41:27;;;;;;;21.27;15.00;;;19.70;51.10;;;;;;5054297;28;20423;-78
2021/11/12 11:43:54;;;;;;;24.48;17.05;;;20.00;50.40;;;;;;5056140;28;20017;-77
2021/11/12 11:46:28;;;;;;;21.10;15.65;;;20.00;49.20;;;;;;5055916;28;20037;-77
2021/11/12 11:48:57;;;;;;;20.35;14.40;;;20.00;48.90;;;;;;5054568;28;20484;-77
2021/11/12 11:51:31;;;;;;;22.40;14.43;;;20.30;49.20;;;;;;5056005;28;20110;-77
2021/11/12 11:54:08;;;;;;;28.08;15.07;;;20.60;49.00;;;;;;5054712;28;20079;-77
2021/11/12 11:56:38;;;;;;;21.70;16.27;;;20.70;47.30;;;;;;5055605;28;20036;-77
2021/11/12 11:59:29;;;;;;;23.90;17.85;;;20.40;46.40;;;;;;5055482;28;20091;-77
2021/11/12 12:01:59;;;;;;;21.58;15.57;;;20.00;46.90;;;;;;5054066;28;20013;-78
2021/11/12 12:04:34;;;;;;;21.15;16.45;;;19.70;47.40;;;;;;5040606;28;20034;-78
2021/11/12 12:07:03;;;;;;;25.23;17.60;;;19.50;47.80;;;;;;5054476;28;20045;-78
2021/11/12 12:09:42;;;;;;;23.73;18.15;;;19.30;48.00;;;;;;5055510;28;20489;-77
2021/11/12 12:12:08;;;;;;;27.63;18.90;;;19.10;47.80;;;;;;5054126;28;20044;-77
2021/11/12 12:14:36;;;;;;;26.25;18.98;;;18.70;48.40;;;;;;5054260;28;20083;-78
2021/11/12 12:17:14;;;;;;;28.45;21.50;;;18.40;49.20;;;;;;5065234;28;20384;-77
2021/11/12 12:19:58;;;;;;;30.27;19.48;;;18.20;49.70;;;;;;5026534;28;20030;-77
2021/11/12 13:20:16;;;;;;;38.70;23.10;;;13.10;61.50;;;;;;5054550;28;20032;-72
2021/11/12 13:25:40;;;;;;;33.63;21.95;;;13.00;62.90;;;;;;5054778;28;20024;-73
2021/11/12 13:28:23;;;;;;;35.28;22.70;;;13.00;63.20;;;;;;5054090;28;20455;-73
2021/11/12 13:31:08;;;;;;;33.03;21.70;;;13.00;63.20;;;;;;5052368;28;20056;-73
2021/11/12 13:33:53;;;;;;;32.65;23.10;;;12.90;63.40;;;;;;5053889;28;20106;-73
2021/11/12 13:36:28;;;;;;;35.28;22.13;;;12.90;63.60;;;;;;5053852;28;20025;-73
2021/11/12 13:38:55;;;;;;;;;;;12.90;63.70;;;;;;5052980;28;20017;-71
2021/11/12 13:41:25;;;;;;;38.08;23.00;;;12.70;64.30;;;;;;5053650;28;19905;-72
2021/11/12 13:44:03;;;;;;;36.72;22.80;;;12.60;64.10;;;;;;5053854;28;20096;-71
2021/11/12 13:46:44;;;;;;;39.20;24.73;;;12.40;64.50;;;;;;5052160;28;20029;-71
2021/11/12 13:49:10;;;;;;;37.33;23.67;;;12.30;65.50;;;;;;5053808;28;20477;-71
2021/11/12 13:51:35;;;;;;;36.72;23.27;;;12.20;65.50;;;;;;5053607;28;20051;-72
2021/11/12 13:54:04;;;;;;;39.67;24.98;;;12.10;65.80;;;;;;5053362;28;20032;-76
2021/11/12 13:56:34;;;;;;;35.72;23.90;;;12.00;66.10;;;;;;5051765;28;20499;-77
2021/11/12 13:59:09;;;;;;;43.45;25.45;;;11.90;66.50;;;;;;5053008;28;20031;-76
2021/11/12 14:01:35;;;;;;;36.22;23.00;;;11.80;66.90;;;;;;5053201;28;20025;-77
2021/11/12 14:04:02;;;;;;;38.57;24.47;;;11.70;67.20;;;;;;5052136;28;20064;-77
2021/11/12 14:06:36;;;;;;;45.40;25.15;;;11.70;67.90;;;;;;5053637;28;20454;-78
2021/11/12 14:09:03;;;;;;;;;;;11.50;68.00;;;;;;5053871;28;20025;-77
2021/11/12 14:11:32;;;;;;;40.33;24.37;;;11.40;68.90;;;;;;5053207;28;19905;-77
2021/11/12 14:14:03;;;;;;;40.43;24.80;;;11.40;68.70;;;;;;5051964;28;20028;-77
2021/11/12 14:16:39;;;;;;;37.07;24.07;;;11.30;69.10;;;;;;5053116;28;20036;-73
2021/11/12 14:21:39;;;;;;;37.63;24.70;;;11.10;69.90;;;;;;5032402;28;20052;-72
2021/11/12 14:27:08;;;;;;;40.77;25.50;;;11.00;70.80;;;;;;5033306;28;20519;-72
2021/11/12 14:38:03;;;;;;;39.70;24.57;;;10.70;72.20;;;;;;5052273;28;20036;-72
2021/11/12 14:54:55;;;;;;;37.57;24.07;;;10.40;73.50;;;;;;5053300;28;20032;-72
2021/11/12 14:59:59;;;;;;;38.83;23.30;;;10.30;74.50;;;;;;5052959;28;20025;-72
2021/11/12 15:02:28;;;;;;;40.50;24.53;;;10.30;74.50;;;;;;5052920;28;20071;-73
2021/11/12 15:04:54;;;;;;;43.17;25.67;;;10.30;75.00;;;;;;5051625;28;20017;-72
2021/11/12 15:07:25;;;;;;;43.70;25.63;;;10.20;75.30;;;;;;5051181;28;20028;-73
2021/11/12 15:09:51;;;;;;;40.70;25.07;;;10.20;75.80;;;;;;5051179;28;20120;-73
2021/11/12 15:12:17;;;;;;;39.43;24.87;;;10.10;75.70;;;;;;5052585;28;20021;-77
2021/11/12 15:14:49;;;;;;;39.27;24.50;;;10.10;75.90;;;;;;5052011;28;20055;-76
2021/11/12 15:17:14;;;;;;;43.37;24.30;;;10.00;76.40;;;;;;5056102;28;20017;-73
2021/11/12 15:19:43;;;;;;;44.33;24.40;;;10.00;76.60;;;;;;5056536;28;20028;-73
2021/11/12 15:29:36;;;;;;;38.57;23.70;;;9.90;77.00;;;;;;5041206;28;20032;-73
2021/11/12 15:32:13;;;;;;;40.23;25.10;;;9.80;77.30;;;;;;5053022;28;20033;-73
2021/11/12 15:34:48;;;;;;;40.00;24.43;;;9.90;77.70;;;;;;5053903;28;20036;-73
2021/11/12 15:48:20;;;;;;;35.03;22.30;;;9.70;78.50;;;;;;5055569;28;20044;-72
2021/11/12 16:11:35;;;;;;;35.22;21.35;;;9.40;79.60;;;;;;5052198;28;20527;-72
2021/11/12 16:14:07;;;;;;;36.13;20.77;;;9.30;79.90;;;;;;5054660;28;20064;-73
2021/11/12 16:27:01;;;;;;;33.77;20.63;;;9.20;80.70;;;;;;5037871;28;20087;-77
2021/11/12 16:32:29;;;;;;;35.57;22.13;;;9.10;81.30;;;;;;5037171;28;20052;-73
2021/11/12 16:35:00;;;;;;;33.60;20.17;;;9.10;81.40;;;;;;5052644;28;20047;-77
2021/11/12 16:37:27;;;;;;;35.03;22.00;;;9.10;81.50;;;;;;5054924;28;20822;-77
2021/11/12 16:45:12;;;;;;;34.17;21.33;;;9.00;81.80;;;;;;5035088;28;20121;-75
2021/11/12 16:50:15;;;;;;;34.40;20.57;;;9.10;82.30;;;;;;5046189;28;20359;-77
2021/11/12 16:55:44;;;;;;;33.73;19.83;;;9.10;82.40;;;;;;5048806;28;20082;-77
2021/11/12 16:58:32;;;;;;;33.33;21.27;;;9.10;82.30;;;;;;5037498;28;20033;-77
2021/11/12 17:11:46;;;;;;;32.53;20.52;;;9.00;83.00;;;;;;5043874;28;20113;-76
2021/11/12 17:46:58;;;;;;;27.60;17.55;;;8.90;84.90;;;;;;5042631;28;20042;-76
2021/11/12 18:03:29;;;;;;;25.58;16.63;;;9.10;86.30;;;;;;5036189;28;20373;-71
2021/11/12 18:06:17;;;;;;;32.63;18.43;;;9.20;86.60;;;;;;5032529;28;20108;-71
2021/11/12 21:48:26;;;;;;;23.53;13.43;;;9.90;92.50;;;;;;5045443;28;20124;-77
2021/11/12 21:50:57;;;;;;;23.53;13.93;;;9.90;92.60;;;;;;5048460;28;20081;-76
2021/11/12 21:53:23;;;;;;;21.27;13.37;;;9.90;92.50;;;;;;5052939;28;20024;-74
2021/11/12 21:55:50;;;;;;;22.20;13.37;;;9.90;92.50;;;;;;5084746;28;20029;-75
2021/11/12 21:58:16;;;;;;;22.07;13.20;;;9.90;92.70;;;;;;5053702;28;20028;-74
2021/11/12 22:00:43;;;;;;;23.03;13.33;;;9.90;92.50;;;;;;5034802;28;20364;-76
2021/11/12 22:03:08;;;;;;;21.23;13.43;;;9.90;92.60;;;;;;5038279;28;20567;-75
2021/11/12 22:05:34;;;;;;;28.47;15.50;;;9.90;92.80;;;;;;5053318;28;20107;-76
2021/11/12 22:07:59;;;;;;;29.53;15.23;;;9.90;92.90;;;;;;5053015;28;20103;-75
2021/11/12 22:10:25;;;;;;;25.90;14.80;;;10.00;93.00;;;;;;5053409;28;20029;-76
2021/11/12 22:12:51;;;;;;;24.83;12.63;;;9.90;92.90;;;;;;5085685;28;20021;-74
2021/11/12 22:15:17;;;;;;;25.53;14.63;;;10.00;93.00;;;;;;5053681;28;20553;-74
2021/11/12 22:17:43;;;;;;;21.27;14.50;;;10.00;93.00;;;;;;5053391;28;20035;-74
2021/11/12 22:20:11;;;;;;;23.50;13.23;;;10.00;93.00;;;;;;5051596;28;20036;-75
2021/11/12 22:22:37;;;;;;;25.23;14.80;;;10.00;93.00;;;;;;5053080;28;20024;-76
2021/11/12 22:25:04;;;;;;;25.13;14.77;;;10.00;93.10;;;;;;5052804;28;20056;-75
2021/11/12 22:27:29;;;;;;;24.23;14.33;;;10.00;93.00;;;;;;5051508;28;20029;-76
2021/11/12 22:29:55;;;;;;;26.43;15.23;;;10.00;93.10;;;;;;5053638;28;20029;-76
2021/11/12 22:32:21;;;;;;;24.67;14.60;;;10.00;93.20;;;;;;5052901;28;20175;-76
2021/11/12 22:34:49;;;;;;;27.83;14.97;;;10.00;93.20;;;;;;5053068;28;20433;-76
2021/11/12 22:37:16;;;;;;;26.13;15.83;;;10.00;93.20;;;;;;5035804;28;20053;-76
2021/11/12 22:39:42;;;;;;;26.43;15.00;;;10.00;93.30;;;;;;5053418;28;20028;-75
2021/11/12 22:42:09;;;;;;;24.37;15.80;;;10.00;93.30;;;;;;5053240;28;20033;-76
2021/11/12 22:44:35;;;;;;;27.77;16.53;;;10.10;93.40;;;;;;5051867;28;20116;-76
2021/11/12 22:47:01;;;;;;;25.47;15.13;;;10.00;93.40;;;;;;5051782;28;20557;-75
2021/11/12 22:49:26;;;;;;;24.73;15.90;;;10.00;93.50;;;;;;5053124;28;20024;-75
2021/11/12 22:51:52;;;;;;;22.83;14.97;;;10.00;93.50;;;;;;5053300;28;20350;-76
2021/11/12 22:54:18;;;;;;;24.47;15.73;;;10.00;93.50;;;;;;5053008;28;20036;-76
2021/11/12 22:56:43;;;;;;;30.83;17.03;;;10.00;93.60;;;;;;5053004;28;20446;-76
2021/11/12 22:59:09;;;;;;;23.90;14.60;;;10.00;93.60;;;;;;5052265;28;20495;-78
2021/11/12 23:01:35;;;;;;;27.13;15.93;;;10.00;93.50;;;;;;5051799;28;20025;-75
2021/11/12 23:04:01;;;;;;;27.90;16.37;;;10.00;93.60;;;;;;5049244;28;20048;-76
2021/11/12 23:06:27;;;;;;;24.17;16.27;;;10.00;93.60;;;;;;5044180;28;20033;-75
2021/11/12 23:08:53;;;;;;;26.67;16.57;;;10.00;93.60;;;;;;5052497;28;20032;-76
2021/11/12 23:11:20;;;;;;;24.27;15.00;;;10.00;93.70;;;;;;5052814;28;20032;-75